sensor_id;sensor_type;location;lat;lon;timestamp;pressure;altitude;pressure_sealevel;temperature;humidity
14885;BME280;7534;50.762;7.000;2023-05-11T00:02:04;87951.09;;;-143.16;73.53
14885;BME280;7534;50.762;7.000;2023-05-11T00:04:30;87973.28;;;-143.16;73.79
14885;BME280;7534;50.762;7.000;2023-05-11T00:06:56;88033.84;;;-143.16;74.00
14885;BME280;7534;50.762;7.000;2023-05-11T00:09:21;88084.31;;;-143.16;74.02
14885;BME280;7534;50.762;7.000;2023-05-11T00:11:47;88078.25;;;-143.16;74.45
14885;BME280;7534;50.762;7.000;2023-05-11T00:14:13;88080.28;;;-143.16;74.24
14885;BME280;7534;50.762;7.000;2023-05-11T00:16:38;88047.97;;;-143.16;74.16
14885;BME280;7534;50.762;7.000;2023-05-11T00:19:04;88043.94;;;-143.16;74.37
14885;BME280;7534;50.762;7.000;2023-05-11T00:21:30;88056.06;;;-143.16;74.62
14885;BME280;7534;50.762;7.000;2023-05-11T00:23:56;87963.19;;;-143.16;74.74
14885;BME280;7534;50.762;7.000;2023-05-11T00:26:22;88126.72;;;-143.16;74.66
14885;BME280;7534;50.762;7.000;2023-05-11T00:28:48;88013.66;;;-143.16;74.60
14885;BME280;7534;50.762;7.000;2023-05-11T00:31:14;88025.78;;;-143.16;74.65
14885;BME280;7534;50.762;7.000;2023-05-11T00:33:39;88082.28;;;-143.16;75.21
14885;BME280;7534;50.762;7.000;2023-05-11T00:36:06;88027.78;;;-143.16;75.53
14885;BME280;7534;50.762;7.000;2023-05-11T00:38:32;87969.25;;;-143.16;75.68
14885;BME280;7534;50.762;7.000;2023-05-11T00:40:58;88074.22;;;-143.16;75.93
14885;BME280;7534;50.762;7.000;2023-05-11T00:43:24;88043.94;;;-143.16;75.52
14885;BME280;7534;50.762;7.000;2023-05-11T00:45:50;88003.56;;;-143.16;75.12
14885;BME280;7534;50.762;7.000;2023-05-11T00:48:17;88025.78;;;-143.16;74.59
14885;BME280;7534;50.762;7.000;2023-05-11T00:50:43;88037.88;;;-143.16;74.99
14885;BME280;7534;50.762;7.000;2023-05-11T00:53:09;87991.47;;;-143.16;74.89
14885;BME280;7534;50.762;7.000;2023-05-11T00:55:36;88021.75;;;-143.16;76.45
14885;BME280;7534;50.762;7.000;2023-05-11T00:58:02;88047.97;;;-143.16;76.16
14885;BME280;7534;50.762;7.000;2023-05-11T01:00:30;87971.28;;;-143.16;75.05
14885;BME280;7534;50.762;7.000;2023-05-11T01:02:57;87999.53;;;-143.16;75.06
14885;BME280;7534;50.762;7.000;2023-05-11T01:05:56;88052.00;;;-143.16;75.24
14885;BME280;7534;50.762;7.000;2023-05-11T01:08:39;88005.59;;;-143.16;74.97
14885;BME280;7534;50.762;7.000;2023-05-11T01:14:00;88023.75;;;-143.16;74.57
14885;BME280;7534;50.762;7.000;2023-05-11T01:16:34;88009.63;;;-143.16;74.43
14885;BME280;7534;50.762;7.000;2023-05-11T01:19:18;88037.88;;;-143.16;74.77
14885;BME280;7534;50.762;7.000;2023-05-11T01:21:49;88015.69;;;-143.16;74.85
14885;BME280;7534;50.762;7.000;2023-05-11T01:24:53;88007.59;;;-143.16;74.99
14885;BME280;7534;50.762;7.000;2023-05-11T01:30:50;88023.75;;;-143.16;74.80
14885;BME280;7534;50.762;7.000;2023-05-11T01:33:22;88050.00;;;-143.16;74.76
14885;BME280;7534;50.762;7.000;2023-05-11T01:35:55;88064.13;;;-143.16;75.00
14885;BME280;7534;50.762;7.000;2023-05-11T01:38:26;87987.44;;;-143.16;75.34
14885;BME280;7534;50.762;7.000;2023-05-11T01:40:59;87993.47;;;-143.16;75.42
14885;BME280;7534;50.762;7.000;2023-05-11T01:43:27;87987.44;;;-143.16;75.49
14885;BME280;7534;50.762;7.000;2023-05-11T01:45:59;88015.69;;;-143.16;75.88
14885;BME280;7534;50.762;7.000;2023-05-11T01:48:42;87977.31;;;-143.16;75.71
14885;BME280;7534;50.762;7.000;2023-05-11T01:51:10;87987.44;;;-143.16;75.77
14885;BME280;7534;50.762;7.000;2023-05-11T01:54:05;88001.56;;;-143.16;76.20
14885;BME280;7534;50.762;7.000;2023-05-11T01:56:32;87967.25;;;-143.16;75.92
14885;BME280;7534;50.762;7.000;2023-05-11T01:59:01;88021.75;;;-143.16;75.99
14885;BME280;7534;50.762;7.000;2023-05-11T02:01:28;87999.53;;;-143.16;75.96
14885;BME280;7534;50.762;7.000;2023-05-11T02:03:57;88092.38;;;-143.16;76.16
14885;BME280;7534;50.762;7.000;2023-05-11T02:06:25;87991.47;;;-143.16;76.10
14885;BME280;7534;50.762;7.000;2023-05-11T02:08:55;87963.19;;;-143.16;76.09
14885;BME280;7534;50.762;7.000;2023-05-11T02:11:24;87951.09;;;-143.16;76.21
14885;BME280;7534;50.762;7.000;2023-05-11T02:13:52;88005.59;;;-143.16;76.16
14885;BME280;7534;50.762;7.000;2023-05-11T02:16:23;87975.31;;;-143.16;76.16
14885;BME280;7534;50.762;7.000;2023-05-11T02:18:50;87918.78;;;-143.16;76.53
14885;BME280;7534;50.762;7.000;2023-05-11T02:21:18;87975.31;;;-143.16;76.51
14885;BME280;7534;50.762;7.000;2023-05-11T02:23:46;88050.00;;;-143.16;76.98
14885;BME280;7534;50.762;7.000;2023-05-11T02:26:14;88005.59;;;-143.16;76.37
14885;BME280;7534;50.762;7.000;2023-05-11T02:28:41;87981.38;;;-143.16;76.32
14885;BME280;7534;50.762;7.000;2023-05-11T02:31:16;87991.47;;;-143.16;76.22
14885;BME280;7534;50.762;7.000;2023-05-11T02:33:47;88015.69;;;-143.16;76.15
14885;BME280;7534;50.762;7.000;2023-05-11T02:36:20;88019.72;;;-143.16;75.84
14885;BME280;7534;50.762;7.000;2023-05-11T02:38:48;88037.88;;;-143.16;75.23
14885;BME280;7534;50.762;7.000;2023-05-11T02:41:20;88005.59;;;-143.16;74.79
14885;BME280;7534;50.762;7.000;2023-05-11T02:43:51;88003.56;;;-143.16;74.45
14885;BME280;7534;50.762;7.000;2023-05-11T02:46:26;87983.38;;;-143.16;74.32
14885;BME280;7534;50.762;7.000;2023-05-11T02:48:56;87969.25;;;-143.16;73.85
14885;BME280;7534;50.762;7.000;2023-05-11T02:51:33;87987.44;;;-143.16;73.74
14885;BME280;7534;50.762;7.000;2023-05-11T02:54:01;87965.22;;;-143.16;74.19
14885;BME280;7534;50.762;7.000;2023-05-11T02:56:28;87977.31;;;-143.16;73.83
14885;BME280;7534;50.762;7.000;2023-05-11T02:58:54;88037.88;;;-143.16;73.57
14885;BME280;7534;50.762;7.000;2023-05-11T03:01:20;87938.97;;;-143.16;73.33
14885;BME280;7534;50.762;7.000;2023-05-11T03:03:46;87969.25;;;-143.16;73.07
14885;BME280;7534;50.762;7.000;2023-05-11T03:06:12;87834.03;;;-143.16;72.41
14885;BME280;7534;50.762;7.000;2023-05-11T03:08:40;87902.66;;;-143.16;72.15
14885;BME280;7534;50.762;7.000;2023-05-11T03:11:08;87936.97;;;-143.16;71.91
14885;BME280;7534;50.762;7.000;2023-05-11T03:13:34;87943.00;;;-143.16;71.81
14885;BME280;7534;50.762;7.000;2023-05-11T03:16:01;87924.84;;;-143.16;71.93
14885;BME280;7534;50.762;7.000;2023-05-11T03:18:28;87953.09;;;-143.16;72.13
14885;BME280;7534;50.762;7.000;2023-05-11T03:20:58;87930.91;;;-143.16;72.12
14885;BME280;7534;50.762;7.000;2023-05-11T03:23:27;87884.47;;;-143.16;71.93
14885;BME280;7534;50.762;7.000;2023-05-11T03:25:54;87902.66;;;-143.16;71.59
14885;BME280;7534;50.762;7.000;2023-05-11T03:28:22;87959.16;;;-143.16;71.38
14885;BME280;7534;50.762;7.000;2023-05-11T03:30:50;87926.88;;;-143.16;71.13
14885;BME280;7534;50.762;7.000;2023-05-11T03:33:16;87938.97;;;-143.16;71.22
14885;BME280;7534;50.762;7.000;2023-05-11T03:35:45;87930.91;;;-143.16;71.08
14885;BME280;7534;50.762;7.000;2023-05-11T03:38:13;87896.59;;;-143.16;71.20
14885;BME280;7534;50.762;7.000;2023-05-11T03:40:41;87922.81;;;-143.16;71.18
14885;BME280;7534;50.762;7.000;2023-05-11T03:43:11;87906.69;;;-143.16;71.07
14885;BME280;7534;50.762;7.000;2023-05-11T03:45:41;87920.81;;;-143.16;71.16
14885;BME280;7534;50.762;7.000;2023-05-11T03:48:10;87951.09;;;-143.16;71.45
14885;BME280;7534;50.762;7.000;2023-05-11T03:50:37;87936.97;;;-143.16;71.49
14885;BME280;7534;50.762;7.000;2023-05-11T03:53:04;87934.94;;;-143.16;71.53
14885;BME280;7534;50.762;7.000;2023-05-11T03:55:31;87922.81;;;-143.16;71.52
14885;BME280;7534;50.762;7.000;2023-05-11T03:57:57;87957.16;;;-143.16;71.53
14885;BME280;7534;50.762;7.000;2023-05-11T04:00:23;87934.94;;;-143.16;71.39
14885;BME280;7534;50.762;7.000;2023-05-11T04:02:49;87934.94;;;-143.16;71.58
14885;BME280;7534;50.762;7.000;2023-05-11T04:05:14;87876.41;;;-143.16;71.68
14885;BME280;7534;50.762;7.000;2023-05-11T04:07:40;88019.72;;;-143.16;71.68
14885;BME280;7534;50.762;7.000;2023-05-11T04:10:07;87941.00;;;-143.16;71.73
14885;BME280;7534;50.762;7.000;2023-05-11T04:12:32;87914.75;;;-143.16;71.94
14885;BME280;7534;50.762;7.000;2023-05-11T04:14:58;87943.00;;;-143.16;71.65
14885;BME280;7534;50.762;7.000;2023-05-11T04:17:24;87904.66;;;-143.16;71.85
14885;BME280;7534;50.762;7.000;2023-05-11T04:19:49;87926.88;;;-143.16;71.94
14885;BME280;7534;50.762;7.000;2023-05-11T04:22:15;87924.84;;;-143.16;72.03
14885;BME280;7534;50.762;7.000;2023-05-11T04:24:41;87916.78;;;-143.16;72.10
14885;BME280;7534;50.762;7.000;2023-05-11T04:27:07;87943.00;;;-143.16;72.24
14885;BME280;7534;50.762;7.000;2023-05-11T04:29:32;87876.41;;;-143.16;72.50
14885;BME280;7534;50.762;7.000;2023-05-11T04:31:58;87955.13;;;-143.16;72.60
14885;BME280;7534;50.762;7.000;2023-05-11T04:34:24;87904.66;;;-143.16;72.60
14885;BME280;7534;50.762;7.000;2023-05-11T04:36:50;87930.91;;;-143.16;72.62
14885;BME280;7534;50.762;7.000;2023-05-11T04:39:16;87926.88;;;-143.16;72.48
14885;BME280;7534;50.762;7.000;2023-05-11T04:41:42;87934.94;;;-143.16;72.27
14885;BME280;7534;50.762;7.000;2023-05-11T04:44:09;87934.94;;;-143.16;71.81
14885;BME280;7534;50.762;7.000;2023-05-11T04:46:34;87846.13;;;-143.16;71.66
14885;BME280;7534;50.762;7.000;2023-05-11T04:49:01;87916.78;;;-143.16;71.09
14885;BME280;7534;50.762;7.000;2023-05-11T04:51:27;87866.31;;;-143.16;71.13
14885;BME280;7534;50.762;7.000;2023-05-11T04:53:52;88013.66;;;-143.16;70.08
14885;BME280;7534;50.762;7.000;2023-05-11T04:56:18;87906.69;;;-143.16;69.82
14885;BME280;7534;50.762;7.000;2023-05-11T04:58:46;87864.28;;;-143.16;69.63
14885;BME280;7534;50.762;7.000;2023-05-11T05:01:12;87977.31;;;-143.16;68.74
14885;BME280;7534;50.762;7.000;2023-05-11T05:03:37;87866.31;;;-143.16;68.24
14885;BME280;7534;50.762;7.000;2023-05-11T05:06:03;87829.97;;;-143.16;68.08
14885;BME280;7534;50.762;7.000;2023-05-11T05:08:29;87838.06;;;-143.16;67.70
14885;BME280;7534;50.762;7.000;2023-05-11T05:10:54;87836.03;;;-143.16;67.32
14885;BME280;7534;50.762;7.000;2023-05-11T05:13:20;87817.88;;;-143.16;66.95
14885;BME280;7534;50.762;7.000;2023-05-11T05:15:46;87797.69;;;-143.16;66.51
14885;BME280;7534;50.762;7.000;2023-05-11T05:18:12;87753.28;;;-143.16;66.23
14885;BME280;7534;50.762;7.000;2023-05-11T05:20:38;87797.69;;;-143.16;65.71
14885;BME280;7534;50.762;7.000;2023-05-11T05:23:04;87690.72;;;-143.16;65.29
14885;BME280;7534;50.762;7.000;2023-05-11T05:25:30;87696.75;;;-143.16;63.97
14885;BME280;7534;50.762;7.000;2023-05-11T05:27:56;87694.75;;;-143.16;63.44
14885;BME280;7534;50.762;7.000;2023-05-11T05:30:22;87696.75;;;-143.16;63.15
14885;BME280;7534;50.762;7.000;2023-05-11T05:32:47;87745.22;;;-143.16;62.55
14885;BME280;7534;50.762;7.000;2023-05-11T05:35:13;87634.19;;;-143.16;62.41
14885;BME280;7534;50.762;7.000;2023-05-11T05:37:39;87638.22;;;-143.16;62.25
14885;BME280;7534;50.762;7.000;2023-05-11T05:40:05;87628.13;;;-143.16;60.84
14885;BME280;7534;50.762;7.000;2023-05-11T05:42:31;87616.03;;;-143.16;60.77
14885;BME280;7534;50.762;7.000;2023-05-11T05:44:57;87581.72;;;-143.16;60.27
14885;BME280;7534;50.762;7.000;2023-05-11T05:47:22;87555.47;;;-143.16;59.32
14885;BME280;7534;50.762;7.000;2023-05-11T05:49:48;87555.47;;;-143.16;58.57
14885;BME280;7534;50.762;7.000;2023-05-11T05:52:14;87579.69;;;-143.16;58.35
14885;BME280;7534;50.762;7.000;2023-05-11T05:54:40;87549.44;;;-143.16;57.92
14885;BME280;7534;50.762;7.000;2023-05-11T05:57:07;87541.34;;;-143.16;57.36
14885;BME280;7534;50.762;7.000;2023-05-11T05:59:32;87486.84;;;-143.16;57.07
14885;BME280;7534;50.762;7.000;2023-05-11T06:01:58;87531.25;;;-143.16;56.66
14885;BME280;7534;50.762;7.000;2023-05-11T06:04:24;87446.50;;;-143.16;56.89
14885;BME280;7534;50.762;7.000;2023-05-11T06:06:50;87448.50;;;-143.16;56.99
14885;BME280;7534;50.762;7.000;2023-05-11T06:09:16;87458.59;;;-143.16;57.24
14885;BME280;7534;50.762;7.000;2023-05-11T06:11:42;87682.63;;;-143.16;57.36
14885;BME280;7534;50.762;7.000;2023-05-11T06:14:07;87559.53;;;-143.16;57.99
14885;BME280;7534;50.762;7.000;2023-05-11T06:16:33;87519.16;;;-143.16;58.25
14885;BME280;7534;50.762;7.000;2023-05-11T06:18:59;87543.38;;;-143.16;58.13
14885;BME280;7534;50.762;7.000;2023-05-11T06:21:24;87498.97;;;-143.16;58.38
14885;BME280;7534;50.762;7.000;2023-05-11T06:23:51;87543.38;;;-143.16;58.59
14885;BME280;7534;50.762;7.000;2023-05-11T06:26:16;87533.28;;;-143.16;59.16
14885;BME280;7534;50.762;7.000;2023-05-11T06:28:42;87525.22;;;-143.16;58.98
14885;BME280;7534;50.762;7.000;2023-05-11T06:31:08;87490.91;;;-143.16;58.51
14885;BME280;7534;50.762;7.000;2023-05-11T06:33:34;87494.94;;;-143.16;58.68
14885;BME280;7534;50.762;7.000;2023-05-11T06:36:06;87492.91;;;-143.16;58.80
14885;BME280;7534;50.762;7.000;2023-05-11T06:38:32;87448.50;;;-143.16;58.57
14885;BME280;7534;50.762;7.000;2023-05-11T06:41:01;87515.13;;;-143.16;58.05
14885;BME280;7534;50.762;7.000;2023-05-11T06:43:27;87446.50;;;-143.16;57.93
14885;BME280;7534;50.762;7.000;2023-05-11T06:45:52;87480.81;;;-143.16;58.05
14885;BME280;7534;50.762;7.000;2023-05-11T06:48:18;87454.56;;;-143.16;58.07
14885;BME280;7534;50.762;7.000;2023-05-11T06:50:44;87579.69;;;-143.16;57.50
14885;BME280;7534;50.762;7.000;2023-05-11T06:53:10;87488.88;;;-143.16;58.01
14885;BME280;7534;50.762;7.000;2023-05-11T06:55:35;87484.84;;;-143.16;58.09
14885;BME280;7534;50.762;7.000;2023-05-11T06:58:02;87462.63;;;-143.16;58.01
14885;BME280;7534;50.762;7.000;2023-05-11T07:00:28;87531.25;;;-143.16;57.37
14885;BME280;7534;50.762;7.000;2023-05-11T07:02:53;87482.81;;;-143.16;57.76
14885;BME280;7534;50.762;7.000;2023-05-11T07:05:19;87448.50;;;-143.16;56.86
14885;BME280;7534;50.762;7.000;2023-05-11T07:07:45;87444.47;;;-143.16;57.11
14885;BME280;7534;50.762;7.000;2023-05-11T07:10:11;87418.25;;;-143.16;56.83
14885;BME280;7534;50.762;7.000;2023-05-11T07:12:36;87426.31;;;-143.16;56.39
14885;BME280;7534;50.762;7.000;2023-05-11T07:15:02;87456.59;;;-143.16;56.80
14885;BME280;7534;50.762;7.000;2023-05-11T07:17:28;87385.94;;;-143.16;56.26
14885;BME280;7534;50.762;7.000;2023-05-11T07:19:54;87389.97;;;-143.16;56.42
14885;BME280;7534;50.762;7.000;2023-05-11T07:22:20;87359.72;;;-143.16;56.45
14885;BME280;7534;50.762;7.000;2023-05-11T07:24:46;87446.50;;;-143.16;56.03
14885;BME280;7534;50.762;7.000;2023-05-11T07:27:11;87535.28;;;-143.16;55.93
14885;BME280;7534;50.762;7.000;2023-05-11T07:29:37;87482.81;;;-143.16;56.25
14885;BME280;7534;50.762;7.000;2023-05-11T07:32:03;87371.81;;;-143.16;56.08
14885;BME280;7534;50.762;7.000;2023-05-11T07:34:29;87381.91;;;-143.16;54.86
14885;BME280;7534;50.762;7.000;2023-05-11T07:36:55;87198.25;;;-143.16;54.44
14885;BME280;7534;50.762;7.000;2023-05-11T07:39:20;87266.88;;;-143.16;53.10
14885;BME280;7534;50.762;7.000;2023-05-11T07:41:46;87163.94;;;-143.16;52.50
14885;BME280;7534;50.762;7.000;2023-05-11T07:44:12;87303.22;;;-143.16;51.91
14885;BME280;7534;50.762;7.000;2023-05-11T07:46:37;87125.59;;;-143.16;51.30
14885;BME280;7534;50.762;7.000;2023-05-11T07:49:03;87081.22;;;-143.16;50.65
14885;BME280;7534;50.762;7.000;2023-05-11T07:51:29;87159.91;;;-143.16;49.71
14885;BME280;7534;50.762;7.000;2023-05-11T07:53:55;87087.25;;;-143.16;49.45
14885;BME280;7534;50.762;7.000;2023-05-11T07:56:20;87030.75;;;-143.16;49.42
14885;BME280;7534;50.762;7.000;2023-05-11T07:58:46;86962.16;;;-143.16;48.33
14885;BME280;7534;50.762;7.000;2023-05-11T08:01:13;86960.13;;;-143.16;47.95
14885;BME280;7534;50.762;7.000;2023-05-11T08:03:38;86984.34;;;-143.16;47.58
14885;BME280;7534;50.762;7.000;2023-05-11T08:06:06;86950.03;;;-143.16;47.69
14885;BME280;7534;50.762;7.000;2023-05-11T08:08:32;86909.69;;;-143.16;47.29
14885;BME280;7534;50.762;7.000;2023-05-11T08:10:57;86875.38;;;-143.16;47.03
14885;BME280;7534;50.762;7.000;2023-05-11T08:13:24;86887.50;;;-143.16;46.58
14885;BME280;7534;50.762;7.000;2023-05-11T08:15:50;86812.81;;;-143.16;45.64
14885;BME280;7534;50.762;7.000;2023-05-11T08:18:16;86826.94;;;-143.16;45.15
14885;BME280;7534;50.762;7.000;2023-05-11T08:20:42;86831.00;;;-143.16;44.89
14885;BME280;7534;50.762;7.000;2023-05-11T08:23:08;86839.06;;;-143.16;43.87
14885;BME280;7534;50.762;7.000;2023-05-11T08:25:35;86703.88;;;-143.16;43.29
14885;BME280;7534;50.762;7.000;2023-05-11T08:28:01;86661.50;;;-143.16;43.03
14885;BME280;7534;50.762;7.000;2023-05-11T08:30:27;86637.28;;;-143.16;42.04
14885;BME280;7534;50.762;7.000;2023-05-11T08:32:52;86560.59;;;-143.16;41.72
14885;BME280;7534;50.762;7.000;2023-05-11T08:35:18;86417.34;;;-143.16;40.01
14885;BME280;7534;50.762;7.000;2023-05-11T08:37:44;86407.25;;;-143.16;39.55
14885;BME280;7534;50.762;7.000;2023-05-11T08:40:10;86485.94;;;-143.16;38.86
14885;BME280;7534;50.762;7.000;2023-05-11T08:42:40;86326.56;;;-143.16;38.21
14885;BME280;7534;50.762;7.000;2023-05-11T08:45:11;86453.66;;;-143.16;38.54
14885;BME280;7534;50.762;7.000;2023-05-11T08:47:37;86368.94;;;-143.16;37.73
14885;BME280;7534;50.762;7.000;2023-05-11T08:50:03;86487.97;;;-143.16;38.16
14885;BME280;7534;50.762;7.000;2023-05-11T08:52:29;86284.19;;;-143.16;38.32
14885;BME280;7534;50.762;7.000;2023-05-11T08:54:55;86417.34;;;-143.16;38.41
14885;BME280;7534;50.762;7.000;2023-05-11T08:57:21;86350.78;;;-143.16;38.05
14885;BME280;7534;50.762;7.000;2023-05-11T08:59:48;86352.78;;;-143.16;37.91
14885;BME280;7534;50.762;7.000;2023-05-11T09:02:19;86203.50;;;-143.16;36.79
14885;BME280;7534;50.762;7.000;2023-05-11T09:04:45;86231.72;;;-143.16;36.50
14885;BME280;7534;50.762;7.000;2023-05-11T09:07:14;86110.69;;;-143.16;35.62
14885;BME280;7534;50.762;7.000;2023-05-11T09:09:42;86030.00;;;-143.16;34.86
14885;BME280;7534;50.762;7.000;2023-05-11T09:12:08;85981.56;;;-143.16;35.04
14885;BME280;7534;50.762;7.000;2023-05-11T09:14:35;85852.47;;;-143.16;33.95
14885;BME280;7534;50.762;7.000;2023-05-11T09:17:01;85850.44;;;-143.16;33.71
14885;BME280;7534;50.762;7.000;2023-05-11T09:19:29;85808.06;;;-143.16;32.51
14885;BME280;7534;50.762;7.000;2023-05-11T09:21:54;85735.47;;;-143.16;31.62
14885;BME280;7534;50.762;7.000;2023-05-11T09:24:20;85676.97;;;-143.16;31.09
14885;BME280;7534;50.762;7.000;2023-05-11T09:26:47;85624.50;;;-143.16;31.31
14885;BME280;7534;50.762;7.000;2023-05-11T09:29:13;85578.13;;;-143.16;31.48
14885;BME280;7534;50.762;7.000;2023-05-11T09:31:45;85703.19;;;-143.16;31.34
14885;BME280;7534;50.762;7.000;2023-05-11T09:34:22;85908.94;;;-143.16;31.89
14885;BME280;7534;50.762;7.000;2023-05-11T09:36:54;85806.06;;;-143.16;32.07
14885;BME280;7534;50.762;7.000;2023-05-11T09:39:35;85793.97;;;-143.16;31.38
14885;BME280;7534;50.762;7.000;2023-05-11T09:42:11;85789.91;;;-143.16;32.74
14885;BME280;7534;50.762;7.000;2023-05-11T09:44:38;85842.38;;;-143.16;32.90
14885;BME280;7534;50.762;7.000;2023-05-11T09:47:21;85868.59;;;-143.16;31.89
14885;BME280;7534;50.762;7.000;2023-05-11T09:49:47;85822.19;;;-143.16;32.51
14885;BME280;7534;50.762;7.000;2023-05-11T09:52:17;85763.69;;;-143.16;30.58
14885;BME280;7534;50.762;7.000;2023-05-11T09:54:49;85733.44;;;-143.16;30.86
14885;BME280;7534;50.762;7.000;2023-05-11T09:57:30;85592.25;;;-143.16;31.00
14885;BME280;7534;50.762;7.000;2023-05-11T09:59:58;85420.78;;;-143.16;30.75
14885;BME280;7534;50.762;7.000;2023-05-11T10:02:29;85305.81;;;-143.16;29.67
14885;BME280;7534;50.762;7.000;2023-05-11T10:05:00;85190.84;;;-143.16;29.30
14885;BME280;7534;50.762;7.000;2023-05-11T10:07:34;85346.16;;;-143.16;28.73
14885;BME280;7534;50.762;7.000;2023-05-11T10:10:04;85477.25;;;-143.16;30.57
14885;BME280;7534;50.762;7.000;2023-05-11T10:12:31;85658.81;;;-143.16;30.46
14885;BME280;7534;50.762;7.000;2023-05-11T10:15:04;85570.06;;;-143.16;31.11
14885;BME280;7534;50.762;7.000;2023-05-11T10:17:31;85632.59;;;-143.16;32.40
14885;BME280;7534;50.762;7.000;2023-05-11T10:19:58;85719.31;;;-143.16;31.80
14885;BME280;7534;50.762;7.000;2023-05-11T10:22:26;85713.28;;;-143.16;31.47
14885;BME280;7534;50.762;7.000;2023-05-11T10:24:56;85896.84;;;-143.16;31.91
14885;BME280;7534;50.762;7.000;2023-05-11T10:27:22;85870.63;;;-143.16;32.12
14885;BME280;7534;50.762;7.000;2023-05-11T10:29:49;85779.84;;;-143.16;31.83
14885;BME280;7534;50.762;7.000;2023-05-11T10:32:17;85753.63;;;-143.16;32.06
14885;BME280;7534;50.762;7.000;2023-05-11T10:34:45;85868.59;;;-143.16;32.41
14885;BME280;7534;50.762;7.000;2023-05-11T10:37:15;85846.41;;;-143.16;34.00
14885;BME280;7534;50.762;7.000;2023-05-11T10:39:43;86096.56;;;-143.16;35.86
14885;BME280;7534;50.762;7.000;2023-05-11T10:42:48;86183.31;;;-143.16;37.45
14885;BME280;7534;50.762;7.000;2023-05-11T10:51:42;86635.25;;;-143.16;42.53
14885;BME280;7534;50.762;7.000;2023-05-11T11:03:12;86877.41;;;-143.16;45.72
14885;BME280;7534;50.762;7.000;2023-05-11T11:05:39;86820.91;;;-143.16;45.38
14885;BME280;7534;50.762;7.000;2023-05-11T11:08:06;86925.84;;;-143.16;45.30
14885;BME280;7534;50.762;7.000;2023-05-11T11:10:42;86921.78;;;-143.16;44.74
14885;BME280;7534;50.762;7.000;2023-05-11T11:13:13;86905.66;;;-143.16;45.00
14885;BME280;7534;50.762;7.000;2023-05-11T11:18:24;86927.84;;;-143.16;45.61
14885;BME280;7534;50.762;7.000;2023-05-11T11:20:53;86970.22;;;-143.16;45.83
14885;BME280;7534;50.762;7.000;2023-05-11T11:26:05;86792.66;;;-143.16;44.93
14885;BME280;7534;50.762;7.000;2023-05-11T11:31:30;86826.94;;;-143.16;44.67
14885;BME280;7534;50.762;7.000;2023-05-11T11:37:17;86837.03;;;-143.16;44.72
14885;BME280;7534;50.762;7.000;2023-05-11T11:39:47;86869.31;;;-143.16;44.45
14885;BME280;7534;50.762;7.000;2023-05-11T11:42:34;86845.13;;;-143.16;44.12
14885;BME280;7534;50.762;7.000;2023-05-11T11:45:35;86794.66;;;-143.16;44.38
14885;BME280;7534;50.762;7.000;2023-05-11T11:50:34;86746.25;;;-143.16;43.70
14885;BME280;7534;50.762;7.000;2023-05-11T11:53:00;86647.38;;;-143.16;42.52
14885;BME280;7534;50.762;7.000;2023-05-11T11:55:58;86726.06;;;-143.16;42.15
14885;BME280;7534;50.762;7.000;2023-05-11T12:01:14;86487.97;;;-143.16;41.48
14885;BME280;7534;50.762;7.000;2023-05-11T12:03:45;86449.63;;;-143.16;39.83
14885;BME280;7534;50.762;7.000;2023-05-11T12:06:12;86377.00;;;-143.16;39.46
14885;BME280;7534;50.762;7.000;2023-05-11T12:08:40;86405.25;;;-143.16;39.79
14885;BME280;7534;50.762;7.000;2023-05-11T12:11:07;86370.94;;;-143.16;38.91
14885;BME280;7534;50.762;7.000;2023-05-11T12:13:34;86381.03;;;-143.16;39.42
14885;BME280;7534;50.762;7.000;2023-05-11T12:16:16;86300.34;;;-143.16;38.73
14885;BME280;7534;50.762;7.000;2023-05-11T12:18:57;86447.63;;;-143.16;38.45
14885;BME280;7534;50.762;7.000;2023-05-11T12:21:26;86247.88;;;-143.16;38.18
14885;BME280;7534;50.762;7.000;2023-05-11T12:23:53;86227.69;;;-143.16;38.35
14885;BME280;7534;50.762;7.000;2023-05-11T12:26:22;86389.09;;;-143.16;38.03
14885;BME280;7534;50.762;7.000;2023-05-11T12:28:50;86225.69;;;-143.16;38.43
14885;BME280;7534;50.762;7.000;2023-05-11T12:31:18;86207.53;;;-143.16;37.32
14885;BME280;7534;50.762;7.000;2023-05-11T12:33:47;86251.91;;;-143.16;36.52
14885;BME280;7534;50.762;7.000;2023-05-11T12:36:16;86407.25;;;-143.16;37.58
14885;BME280;7534;50.762;7.000;2023-05-11T12:38:47;86251.91;;;-143.16;37.26
14885;BME280;7534;50.762;7.000;2023-05-11T12:41:20;86153.06;;;-143.16;36.26
14885;BME280;7534;50.762;7.000;2023-05-11T12:43:48;86142.97;;;-143.16;36.89
14885;BME280;7534;50.762;7.000;2023-05-11T12:46:17;86173.22;;;-143.16;35.85
14885;BME280;7534;50.762;7.000;2023-05-11T12:48:49;86118.75;;;-143.16;35.70
14885;BME280;7534;50.762;7.000;2023-05-11T12:51:45;86064.28;;;-143.16;35.11
14885;BME280;7534;50.762;7.000;2023-05-11T12:54:57;85953.31;;;-143.16;35.03
14885;BME280;7534;50.762;7.000;2023-05-11T12:57:00;85989.63;;;-143.16;34.48
14885;BME280;7534;50.762;7.000;2023-05-11T13:02:04;85937.19;;;-143.16;35.60
14885;BME280;7534;50.762;7.000;2023-05-11T13:04:30;85941.22;;;-143.16;34.20
14885;BME280;7534;50.762;7.000;2023-05-11T13:06:56;85957.34;;;-143.16;34.48
14885;BME280;7534;50.762;7.000;2023-05-11T13:09:26;85947.28;;;-143.16;34.52
14885;BME280;7534;50.762;7.000;2023-05-11T13:12:17;85989.63;;;-143.16;34.85
14885;BME280;7534;50.762;7.000;2023-05-11T13:14:48;86038.06;;;-143.16;34.94
14885;BME280;7534;50.762;7.000;2023-05-11T13:17:38;86130.84;;;-143.16;36.15
14885;BME280;7534;50.762;7.000;2023-05-11T13:20:24;86100.59;;;-143.16;36.34
14885;BME280;7534;50.762;7.000;2023-05-11T13:23:05;86165.16;;;-143.16;36.14
14885;BME280;7534;50.762;7.000;2023-05-11T13:25:32;86338.66;;;-143.16;36.88
14885;BME280;7534;50.762;7.000;2023-05-11T13:27:58;86425.41;;;-143.16;36.70
14885;BME280;7534;50.762;7.000;2023-05-11T13:30:26;86282.16;;;-143.16;36.98
14885;BME280;7534;50.762;7.000;2023-05-11T13:32:52;86334.63;;;-143.16;36.91
14885;BME280;7534;50.762;7.000;2023-05-11T13:35:17;86300.34;;;-143.16;37.82
14885;BME280;7534;50.762;7.000;2023-05-11T13:37:44;86257.97;;;-143.16;37.73
14885;BME280;7534;50.762;7.000;2023-05-11T13:40:11;86320.50;;;-143.16;37.51